Time;durP1;ratioP1;P1;durP2;ratioP2;P2;SDS_P1;SDS_P2;PMS_P1;PMS_P2;Temp;Humidity;BMP_temperature;BMP_pressure;BME280_temperature;BME280_humidity;BME280_pressure;Samples;Min_cycle;Max_cycle;Signal;HPM_P1;HPM_P2
2023/09/15 00:00:20;;;;;;;6.00;4.37;;;;;;;13.38;100.00;98425.44;4918870;29;20215;-79
2023/09/15 00:02:47;;;;;;;6.10;4.53;;;;;;;13.36;100.00;98431.81;4918447;29;20231;-79
2023/09/15 00:05:14;;;;;;;7.97;4.80;;;;;;;13.35;100.00;98432.78;4918700;29;20653;-79
2023/09/15 00:07:41;;;;;;;6.33;4.93;;;;;;;13.35;100.00;98438.09;4919126;29;20235;-79
2023/09/15 00:10:09;;;;;;;6.53;4.43;;;;;;;13.32;100.00;98443.66;4918933;29;20263;-78
2023/09/15 00:12:35;;;;;;;7.60;4.43;;;;;;;13.24;100.00;98446.00;4918066;29;20235;-78
2023/09/15 00:15:07;;;;;;;5.47;4.33;;;;;;;13.15;100.00;98436.09;4918535;29;20251;-78
2023/09/15 00:17:35;;;;;;;4.83;4.30;;;;;;;13.16;100.00;98440.44;4918733;29;20732;-78
2023/09/15 00:20:08;;;;;;;5.93;4.63;;;;;;;13.12;100.00;98441.63;4918743;29;20224;-79
2023/09/15 00:22:35;;;;;;;5.80;4.20;;;;;;;13.15;100.00;98444.06;4918310;29;20634;-78
2023/09/15 00:25:02;;;;;;;6.33;4.20;;;;;;;13.19;100.00;98432.22;4918766;29;20222;-78
2023/09/15 00:27:28;;;;;;;6.77;4.80;;;;;;;13.16;100.00;98435.13;4918075;29;20231;-79
2023/09/15 00:29:54;;;;;;;5.73;4.07;;;;;;;13.17;100.00;98423.53;4918244;29;20219;-78
2023/09/15 00:32:21;;;;;;;6.70;4.13;;;;;;;13.19;100.00;98424.28;4918138;29;20243;-78
2023/09/15 00:34:49;;;;;;;7.03;4.50;;;;;;;13.13;100.00;98430.91;4918303;29;20238;-78
2023/09/15 00:37:15;;;;;;;5.10;4.40;;;;;;;13.12;100.00;98428.34;4918210;29;20236;-78
2023/09/15 00:39:42;;;;;;;5.33;4.10;;;;;;;13.07;100.00;98419.91;4918436;29;20218;-79
2023/09/15 00:42:08;;;;;;;7.03;4.73;;;;;;;13.03;100.00;98421.09;4917467;29;20245;-78
2023/09/15 00:44:35;;;;;;;6.43;4.40;;;;;;;12.98;100.00;98415.28;4918197;29;20219;-79
2023/09/15 00:47:03;;;;;;;6.97;4.83;;;;;;;12.98;100.00;98425.88;4917730;29;20219;-78
2023/09/15 00:49:29;;;;;;;7.07;4.23;;;;;;;12.98;100.00;98428.53;4917842;29;20251;-78
2023/09/15 00:51:57;;;;;;;5.50;4.10;;;;;;;12.93;100.00;98430.66;4917766;29;20239;-78
2023/09/15 00:54:24;;;;;;;7.37;4.70;;;;;;;12.89;100.00;98426.53;4917885;29;20231;-78
2023/09/15 00:56:50;;;;;;;6.60;4.30;;;;;;;12.85;100.00;98427.72;4917532;29;20738;-78
2023/09/15 00:59:17;;;;;;;6.07;4.60;;;;;;;12.82;100.00;98419.97;4917430;29;20219;-78
2023/09/15 01:01:47;;;;;;;6.47;4.50;;;;;;;12.81;100.00;98413.84;4917016;29;20270;-79
2023/09/15 01:04:14;;;;;;;5.90;4.50;;;;;;;12.76;100.00;98420.41;4917516;29;20286;-79
2023/09/15 01:06:43;;;;;;;6.10;4.37;;;;;;;12.76;100.00;98417.75;4917466;29;20215;-78
2023/09/15 01:09:11;;;;;;;6.80;4.43;;;;;;;12.71;100.00;98414.63;4917745;29;20274;-78
2023/09/15 01:11:37;;;;;;;8.30;4.67;;;;;;;12.69;100.00;98413.88;4917282;29;20239;-78
2023/09/15 01:14:04;;;;;;;6.27;4.63;;;;;;;12.63;100.00;98415.19;4917753;29;20214;-78
2023/09/15 01:16:38;;;;;;;6.83;4.90;;;;;;;12.61;100.00;98410.94;4917480;29;20578;-78
2023/09/15 01:19:24;;;;;;;8.30;5.60;;;;;;;12.58;100.00;98409.34;4917168;29;20594;-79
2023/09/15 01:22:24;;;;;;;6.83;5.63;;;;;;;12.60;100.00;98403.94;4917401;29;20327;-79
2023/09/15 01:25:17;;;;;;;8.33;5.83;;;;;;;12.60;100.00;98399.47;4918012;29;20279;-78
2023/09/15 01:28:08;;;;;;;8.63;5.77;;;;;;;12.63;100.00;98401.06;4917594;29;20221;-78
2023/09/15 01:30:38;;;;;;;9.03;5.67;;;;;;;12.61;100.00;98395.03;4917030;29;20219;-79
2023/09/15 01:33:09;;;;;;;7.23;5.07;;;;;;;12.60;100.00;98398.66;4917335;29;20226;-78
2023/09/15 01:35:35;;;;;;;6.87;5.20;;;;;;;12.56;100.00;98395.38;4917559;29;20283;-78
2023/09/15 01:38:02;;;;;;;7.07;5.33;;;;;;;12.56;100.00;98395.38;4917161;29;20239;-80
2023/09/15 01:40:28;;;;;;;11.00;5.20;;;;;;;12.60;100.00;98396.00;4916326;29;20659;-80
2023/09/15 01:42:55;;;;;;;6.87;5.17;;;;;;;12.56;100.00;98394.53;4916910;29;20219;-80
2023/09/15 01:45:21;;;;;;;5.97;4.57;;;;;;;12.53;100.00;98395.59;4916949;29;20218;-80
2023/09/15 01:47:51;;;;;;;7.13;5.27;;;;;;;12.46;100.00;98401.47;4917438;29;20529;-82
2023/09/15 01:50:18;;;;;;;7.43;5.40;;;;;;;12.46;100.00;98401.47;4916735;29;20599;-80
2023/09/15 01:52:46;;;;;;;7.83;4.90;;;;;;;12.44;100.00;98401.56;4916944;29;20243;-80
2023/09/15 01:55:14;;;;;;;7.17;5.27;;;;;;;12.40;100.00;98408.03;4917088;29;20223;-79
2023/09/15 01:57:40;;;;;;;6.27;4.63;;;;;;;12.37;100.00;98404.78;4916866;29;20719;-80
2023/09/15 02:00:08;;;;;;;6.93;4.57;;;;;;;12.33;100.00;98404.16;4916615;29;20571;-79
2023/09/15 02:02:35;;;;;;;7.30;5.00;;;;;;;12.28;100.00;98400.16;4916743;29;20247;-79
2023/09/15 02:05:03;;;;;;;6.43;4.93;;;;;;;12.28;100.00;98400.16;4916568;29;20220;-79
2023/09/15 02:07:30;;;;;;;6.50;4.77;;;;;;;12.25;100.00;98400.34;4916916;29;20216;-80
2023/09/15 02:09:56;;;;;;;6.67;5.00;;;;;;;12.24;100.00;98390.72;4916737;29;20215;-79
2023/09/15 02:12:22;;;;;;;6.80;5.23;;;;;;;12.19;100.00;98398.13;4918385;29;20231;-79
2023/09/15 02:14:49;;;;;;;8.37;5.57;;;;;;;12.17;100.00;98400.88;4920408;29;20227;-79
2023/09/15 02:17:15;;;;;;;8.60;5.23;;;;;;;12.14;100.00;98397.59;4920269;29;20250;-79
2023/09/15 02:19:42;;;;;;;7.77;5.53;;;;;;;12.14;100.00;98400.25;4919731;29;20305;-80
2023/09/15 02:22:10;;;;;;;7.87;5.33;;;;;;;12.15;100.00;98399.28;4919602;29;20298;-80
2023/09/15 02:24:37;;;;;;;7.40;5.50;;;;;;;12.30;100.00;98393.75;4920571;29;20225;-79
2023/09/15 02:27:04;;;;;;;7.77;5.50;;;;;;;12.35;100.00;98388.97;4920200;29;20226;-79
2023/09/15 02:29:31;;;;;;;7.37;5.37;;;;;;;12.38;100.00;98390.56;4920230;29;20214;-80
2023/09/15 02:31:57;;;;;;;7.10;5.50;;;;;;;12.30;100.00;98396.41;4919926;29;20238;-79
2023/09/15 02:34:24;;;;;;;8.10;5.47;;;;;;;12.24;100.00;98396.84;4919926;29;20224;-80
2023/09/15 02:36:50;;;;;;;5.97;4.83;;;;;;;12.23;100.00;98403.09;4919633;29;20264;-80
2023/09/15 02:39:18;;;;;;;7.67;5.23;;;;;;;12.22;100.00;98405.88;4920146;29;20242;-80
2023/09/15 02:41:45;;;;;;;7.53;4.97;;;;;;;12.25;100.00;98409.16;4919534;29;20236;-80
2023/09/15 02:44:11;;;;;;;7.87;5.33;;;;;;;12.30;100.00;98408.81;4919532;29;20215;-80
2023/09/15 02:46:38;;;;;;;6.80;4.53;;;;;;;12.26;100.00;98415.28;4920442;29;20544;-80
2023/09/15 02:49:05;;;;;;;7.13;5.00;;;;;;;12.30;100.00;98414.13;4919730;29;20212;-80
2023/09/15 02:51:31;;;;;;;6.83;5.07;;;;;;;12.31;100.00;98402.56;4919541;29;20237;-79
2023/09/15 02:53:57;;;;;;;5.93;4.77;;;;;;;12.31;100.00;98407.84;4920270;29;20233;-80
2023/09/15 02:56:25;;;;;;;10.17;6.20;;;;;;;12.36;100.00;98400.44;4919731;29;20214;-80
2023/09/15 02:58:52;;;;;;;7.70;5.37;;;;;;;12.40;100.00;98396.63;4919660;29;20515;-80
2023/09/15 03:01:18;;;;;;;6.63;5.10;;;;;;;12.31;100.00;98405.22;4919143;29;20243;-80
2023/09/15 03:03:46;;;;;;;8.37;5.67;;;;;;;12.19;100.00;98396.34;4919721;29;20213;-80
2023/09/15 03:06:12;;;;;;;7.43;5.37;;;;;;;12.14;100.00;98400.25;4920181;29;20674;-80
2023/09/15 03:08:39;;;;;;;7.13;5.40;;;;;;;12.14;100.00;98392.31;4919399;29;20213;-80
2023/09/15 03:11:12;;;;;;;7.80;5.20;;;;;;;12.12;100.00;98394.22;4919390;29;20240;-80
2023/09/15 03:13:40;;;;;;;7.73;5.73;;;;;;;12.13;100.00;98391.47;4919585;29;20219;-80
2023/09/15 03:16:10;;;;;;;9.93;6.50;;;;;;;12.14;100.00;98387.00;4919347;29;20222;-80
2023/09/15 03:18:36;;;;;;;8.10;5.73;;;;;;;12.16;100.00;98390.41;4919407;29;20341;-80
2023/09/15 03:21:03;;;;;;;8.43;5.73;;;;;;;12.15;100.00;98394.00;4918878;29;20658;-79
2023/09/15 03:23:30;;;;;;;6.20;4.93;;;;;;;12.12;100.00;98400.41;4918665;29;20219;-79
2023/09/15 03:26:00;;;;;;;8.13;5.20;;;;;;;12.08;100.00;98398.03;4919321;29;20217;-80
2023/09/15 03:28:27;;;;;;;7.37;4.90;;;;;;;12.07;100.00;98397.22;4919356;29;20639;-79
2023/09/15 03:30:55;;;;;;;7.70;5.57;;;;;;;12.06;100.00;98394.66;4918223;29;20243;-79
2023/09/15 03:33:22;;;;;;;7.40;5.23;;;;;;;12.05;100.00;98398.28;4919406;29;20217;-80
2023/09/15 03:35:48;;;;;;;7.03;5.00;;;;;;;12.02;100.00;98398.47;4919131;29;20308;-79
2023/09/15 03:38:15;;;;;;;6.80;5.30;;;;;;;11.98;100.00;98400.50;4919168;29;20240;-80
2023/09/15 03:40:41;;;;;;;7.13;5.20;;;;;;;11.99;100.00;98398.72;4918578;29;20231;-80
2023/09/15 03:43:08;;;;;;;7.27;5.40;;;;;;;11.99;100.00;98396.88;4918703;29;20223;-79
2023/09/15 03:45:34;;;;;;;8.80;5.70;;;;;;;11.92;100.00;98397.47;4918844;29;20223;-79
2023/09/15 03:48:04;;;;;;;8.27;5.97;;;;;;;11.92;100.00;98389.50;4918536;29;20212;-80
2023/09/15 03:50:32;;;;;;;7.33;5.17;;;;;;;11.87;100.00;98391.63;4918423;29;20214;-79
2023/09/15 03:52:58;;;;;;;6.57;5.10;;;;;;;11.85;100.00;98390.88;4918451;29;20215;-79
2023/09/15 03:55:25;;;;;;;8.70;5.33;;;;;;;11.86;100.00;98385.47;4918523;29;20587;-79
2023/09/15 03:57:52;;;;;;;9.67;5.87;;;;;;;11.91;100.00;98380.69;4918127;29;20237;-80
2023/09/15 04:00:19;;;;;;;7.97;5.93;;;;;;;11.94;100.00;98375.22;4918889;29;20593;-79
2023/09/15 04:02:46;;;;;;;6.90;5.27;;;;;;;11.92;100.00;98378.91;4918122;29;20715;-80
2023/09/15 04:05:15;;;;;;;9.10;5.80;;;;;;;11.88;100.00;98374.78;4918564;29;20209;-80
2023/09/15 04:07:42;;;;;;;8.73;5.73;;;;;;;11.85;100.00;98377.63;4918642;29;20230;-79
2023/09/15 04:10:09;;;;;;;8.63;5.77;;;;;;;11.87;100.00;98373.09;4918015;29;20624;-80
2023/09/15 04:12:36;;;;;;;9.27;6.17;;;;;;;11.90;100.00;98379.00;4918355;29;20229;-80
2023/09/15 04:15:04;;;;;;;8.43;5.93;;;;;;;11.89;100.00;98379.13;4918488;29;20210;-79
2023/09/15 04:17:30;;;;;;;10.70;7.10;;;;;;;11.88;100.00;98369.47;4918106;29;20672;-79
2023/09/15 04:19:58;;;;;;;9.37;5.33;;;;;;;11.90;100.00;98378.16;4918028;29;20209;-80
2023/09/15 04:22:26;;;;;;;9.60;6.30;;;;;;;11.93;100.00;98368.19;4917824;29;20233;-80
2023/09/15 04:24:53;;;;;;;10.43;6.50;;;;;;;11.97;100.00;98368.81;4917822;29;20226;-79
2023/09/15 04:27:20;;;;;;;8.13;6.10;;;;;;;11.97;100.00;98366.16;4918131;29;20218;-79
2023/09/15 04:29:54;;;;;;;9.00;5.97;;;;;;;11.92;100.00;98368.31;4918138;29;20225;-79
2023/09/15 04:32:20;;;;;;;7.17;4.87;;;;;;;11.88;100.00;98366.84;4917648;29;20238;-79
2023/09/15 04:34:47;;;;;;;8.60;5.67;;;;;;;11.86;100.00;98369.56;4917194;29;20589;-80
2023/09/15 04:37:13;;;;;;;8.63;5.67;;;;;;;11.80;100.00;98371.84;4917056;29;20225;-77
2023/09/15 04:39:42;;;;;;;8.40;5.70;;;;;;;11.82;100.00;98375.22;4917363;29;20213;-81
2023/09/15 04:42:10;;;;;;;7.17;5.40;;;;;;;11.81;100.00;98363.75;4919458;29;20348;-80
2023/09/15 04:44:36;;;;;;;10.50;5.87;;;;;;;11.79;100.00;98370.13;4920769;29;20562;-79
2023/09/15 04:47:03;;;;;;;8.30;5.60;;;;;;;11.78;100.00;98363.13;4919033;29;20219;-80
2023/09/15 04:49:29;;;;;;;7.97;5.70;;;;;;;11.80;100.00;98366.53;4919373;29;20220;-80
2023/09/15 04:51:56;;;;;;;8.73;5.80;;;;;;;11.73;100.00;98370.56;4918955;29;20579;-80
2023/09/15 04:54:22;;;;;;;7.03;5.13;;;;;;;11.66;100.00;98370.13;4919313;29;20213;-80
2023/09/15 04:56:50;;;;;;;7.83;5.33;;;;;;;11.54;100.00;98367.44;4919239;29;20218;-81
2023/09/15 04:59:17;;;;;;;9.47;4.67;;;;;;;11.50;100.00;98363.34;4918948;29;20245;-80
2023/09/15 05:01:43;;;;;;;7.17;5.20;;;;;;;11.46;100.00;98361.84;4919855;29;20237;-82
2023/09/15 05:04:10;;;;;;;7.47;5.27;;;;;;;11.45;100.00;98360.16;4919504;29;20680;-81
2023/09/15 05:06:36;;;;;;;6.67;4.80;;;;;;;11.43;100.00;98362.06;4917104;29;20232;-80
2023/09/15 05:09:04;;;;;;;6.10;4.73;;;;;;;11.37;100.00;98362.50;4917428;29;20216;-78
2023/09/15 05:11:31;;;;;;;6.53;4.93;;;;;;;11.35;100.00;98364.38;4916584;29;20576;-78
2023/09/15 05:13:59;;;;;;;6.80;4.80;;;;;;;11.35;100.00;98359.09;4916949;29;20217;-79
2023/09/15 05:16:25;;;;;;;7.40;5.07;;;;;;;11.40;100.00;98367.56;4917365;29;20307;-79
2023/09/15 05:18:52;;;;;;;6.17;4.70;;;;;;;11.41;100.00;98363.97;4917411;29;20237;-80
2023/09/15 05:21:18;;;;;;;7.57;5.40;;;;;;;11.51;100.00;98365.88;4916314;29;20240;-79
2023/09/15 05:23:45;;;;;;;7.60;5.03;;;;;;;11.51;100.00;98365.03;4917301;29;20309;-79
2023/09/15 05:26:11;;;;;;;6.53;4.70;;;;;;;11.52;100.00;98372.88;4917349;29;20212;-79
2023/09/15 05:28:38;;;;;;;6.40;4.63;;;;;;;11.48;100.00;98373.16;4917124;29;20209;-79
2023/09/15 05:31:07;;;;;;;8.40;5.77;;;;;;;11.51;100.00;98380.91;4916988;29;20229;-79
2023/09/15 05:33:33;;;;;;;8.07;6.40;;;;;;;11.57;100.00;98381.31;4916765;29;20260;-79
2023/09/15 05:36:00;;;;;;;8.50;6.33;;;;;;;11.62;100.00;98383.69;4916215;29;20643;-79
2023/09/15 05:38:27;;;;;;;8.13;5.90;;;;;;;11.64;100.00;98387.09;4916143;29;20256;-79
2023/09/15 05:40:54;;;;;;;8.03;5.80;;;;;;;11.70;100.00;98384.00;4917059;29;20236;-78
2023/09/15 05:43:21;;;;;;;7.20;5.27;;;;;;;11.75;100.00;98384.53;4917425;29;20220;-78
2023/09/15 05:45:48;;;;;;;7.57;5.77;;;;;;;11.78;100.00;98384.31;4916925;29;20269;-78
2023/09/15 05:48:18;;;;;;;8.30;5.73;;;;;;;11.81;100.00;98387.59;4920769;29;20223;-78
2023/09/15 05:50:44;;;;;;;7.70;5.17;;;;;;;11.85;100.00;98388.22;4920396;29;20239;-78
2023/09/15 05:53:11;;;;;;;7.93;5.33;;;;;;;11.90;100.00;98380.81;4920803;29;20222;-78
2023/09/15 05:55:37;;;;;;;8.40;5.87;;;;;;;11.98;100.00;98386.44;4920866;29;20213;-78
2023/09/15 05:58:04;;;;;;;7.67;5.43;;;;;;;12.05;100.00;98383.22;4920409;29;20343;-78
2023/09/15 06:00:30;;;;;;;6.87;5.40;;;;;;;12.06;100.00;98387.59;4919909;29;20216;-78
2023/09/15 06:02:58;;;;;;;6.37;5.30;;;;;;;12.12;100.00;98386.28;4920491;29;20538;-78
2023/09/15 06:05:26;;;;;;;9.10;5.93;;;;;;;12.18;100.00;98377.91;4920711;29;20671;-78
2023/09/15 06:07:53;;;;;;;8.07;5.97;;;;;;;12.25;100.00;98389.75;4920567;29;20646;-78
2023/09/15 06:10:20;;;;;;;6.57;5.40;;;;;;;12.39;100.00;98386.94;4920452;29;20310;-78
2023/09/15 06:12:49;;;;;;;8.00;5.70;;;;;;;12.49;100.00;98393.28;4920605;29;20254;-78
2023/09/15 06:15:15;;;;;;;9.00;5.70;;;;;;;12.71;100.00;98385.47;4920703;29;20579;-78
2023/09/15 06:17:43;;;;;;;7.57;5.33;;;;;;;12.77;100.00;98391.13;4920209;29;20227;-78
2023/09/15 06:20:12;;;;;;;7.73;5.50;;;;;;;12.85;100.00;98393.22;4920893;29;20218;-78
2023/09/15 06:22:41;;;;;;;7.73;5.57;;;;;;;12.93;100.00;98396.16;4920043;29;20246;-78
2023/09/15 06:25:10;;;;;;;7.37;5.80;;;;;;;12.99;100.00;98393.06;4920410;29;20220;-79
2023/09/15 06:27:36;;;;;;;7.47;5.47;;;;;;;13.13;100.00;98396.41;4920266;29;20219;-78
2023/09/15 06:30:04;;;;;;;7.67;5.53;;;;;;;13.31;100.00;98396.78;4920076;29;20208;-78
2023/09/15 06:32:30;;;;;;;7.47;5.10;;;;;;;13.35;100.00;98403.56;4920540;29;20232;-78
2023/09/15 06:34:57;;;;;;;8.23;5.43;;;;;;;13.50;100.00;98405.91;4919966;29;20582;-79
2023/09/15 06:37:23;;;;;;;7.13;5.30;;;;;;;13.61;100.00;98403.28;4918820;29;20219;-79
2023/09/15 06:39:51;;;;;;;7.60;5.40;;;;;;;13.65;100.00;98398.59;4919195;29;20258;-78
2023/09/15 06:42:18;;;;;;;6.07;5.00;;;;;;;13.72;100.00;98398.00;4918991;29;20602;-78
2023/09/15 06:44:44;;;;;;;8.77;5.50;;;;;;;13.86;100.00;98394.25;4919425;29;20327;-79
2023/09/15 06:47:12;;;;;;;8.13;5.47;;;;;;;13.93;100.00;98398.97;4919568;29;20214;-79
2023/09/15 06:49:39;;;;;;;8.43;5.37;;;;;;;14.09;100.00;98398.59;4919723;29;20212;-79
2023/09/15 06:52:06;;;;;;;6.87;4.97;;;;;;;14.17;100.00;98401.53;4919127;29;20353;-79
2023/09/15 06:54:33;;;;;;;6.70;4.93;;;;;;;14.29;100.00;98395.25;4919538;29;20238;-79
2023/09/15 06:57:00;;;;;;;8.67;5.57;;;;;;;14.32;100.00;98400.31;4919146;29;20706;-79
2023/09/15 06:59:27;;;;;;;7.73;6.00;;;;;;;14.48;100.00;98400.78;4918487;29;20620;-79
2023/09/15 07:01:54;;;;;;;7.13;5.50;;;;;;;14.62;100.00;98397.84;4919019;29;20240;-79
2023/09/15 07:04:20;;;;;;;7.43;5.60;;;;;;;14.77;100.00;98396.59;4919245;29;20562;-79
2023/09/15 07:06:47;;;;;;;7.33;5.40;;;;;;;14.86;100.00;98393.19;4918802;29;20209;-79
2023/09/15 07:09:13;;;;;;;7.47;5.53;;;;;;;15.01;100.00;98387.44;4918946;29;20220;-79
2023/09/15 07:11:40;;;;;;;8.47;5.20;;;;;;;15.04;100.00;98395.16;4918332;29;20246;-79
2023/09/15 07:14:07;;;;;;;6.17;5.43;;;;;;;15.10;100.00;98385.84;4918871;29;20228;-79
2023/09/15 07:16:35;;;;;;;7.00;5.47;;;;;;;15.22;100.00;98382.16;4919083;29;20254;-79
2023/09/15 07:19:01;;;;;;;6.47;5.67;;;;;;;15.39;100.00;98378.94;4918835;29;20331;-79
2023/09/15 07:21:28;;;;;;;7.83;5.57;;;;;;;15.34;100.00;98386.47;4918590;29;20260;-79
2023/09/15 07:23:55;;;;;;;8.47;5.53;;;;;;;15.38;100.00;98379.91;4918899;29;20217;-79
2023/09/15 07:26:21;;;;;;;7.77;5.43;;;;;;;15.41;100.00;98387.66;4919019;29;20687;-79
2023/09/15 07:28:48;;;;;;;7.63;5.47;;;;;;;15.48;100.00;98388.81;4918784;29;20274;-79
2023/09/15 07:31:16;;;;;;;6.97;5.23;;;;;;;15.63;100.00;98377.69;4918420;29;20233;-79
2023/09/15 07:33:43;;;;;;;7.20;5.87;;;;;;;15.70;100.00;98378.84;4918873;29;20216;-78
2023/09/15 07:36:10;;;;;;;6.93;5.33;;;;;;;15.76;100.00;98385.50;4917920;29;20247;-79
2023/09/15 07:38:36;;;;;;;7.73;5.40;;;;;;;15.85;100.00;98379.34;4918183;29;20239;-79
2023/09/15 07:41:03;;;;;;;7.00;5.80;;;;;;;16.03;100.00;98391.94;4917428;29;20244;-79
2023/09/15 07:43:32;;;;;;;6.87;5.27;;;;;;;16.17;100.00;98389.78;4917884;29;20628;-78
2023/09/15 07:45:59;;;;;;;6.00;5.03;;;;;;;16.24;100.00;98384.72;4918230;29;20209;-78
2023/09/15 07:48:27;;;;;;;7.13;5.40;;;;;;;16.34;100.00;98378.44;4918479;29;20208;-81
2023/09/15 07:50:54;;;;;;;5.83;5.17;;;;;;;16.34;100.00;98377.63;4918442;29;20288;-79
2023/09/15 07:53:21;;;;;;;7.40;5.53;;;;;;;16.41;100.00;98371.59;4918740;29;20246;-78
2023/09/15 07:55:47;;;;;;;8.20;5.90;;;;;;;16.50;100.00;98376.13;4918347;29;20586;-78
2023/09/15 07:58:14;;;;;;;6.50;5.40;;;;;;;16.69;100.00;98381.53;4918141;29;20228;-78
2023/09/15 08:00:41;;;;;;;7.40;5.87;;;;;;;16.81;100.00;98375.06;4917627;29;20240;-78
2023/09/15 08:03:08;;;;;;;6.80;5.60;;;;;;;16.84;100.00;98368.63;4917806;29;20209;-78
2023/09/15 08:05:36;;;;;;;9.30;5.80;;;;;;;16.87;100.00;98361.16;4917613;29;20703;-80
2023/09/15 08:08:02;;;;;;;7.00;5.60;;;;;;;17.04;100.00;98370.31;4917859;29;20213;-78
2023/09/15 08:10:29;;;;;;;7.50;5.43;;;;;;;16.91;100.00;98362.59;4917367;29;20208;-78
2023/09/15 08:12:56;;;;;;;7.13;5.50;;;;;;;17.01;100.00;98363.41;4917695;29;20638;-79
2023/09/15 08:15:23;;;;;;;6.70;5.63;;;;;;;17.11;100.00;98356.25;4917877;29;20248;-79
2023/09/15 08:17:50;;;;;;;9.27;6.10;;;;;;;17.22;100.00;98364.13;4917583;29;20227;-78
2023/09/15 08:20:17;;;;;;;8.20;6.10;;;;;;;17.38;100.00;98359.06;4917389;29;20699;-78
2023/09/15 08:22:45;;;;;;;7.43;6.00;;;;;;;17.54;100.00;98351.31;4917284;29;20291;-78
2023/09/15 08:25:12;;;;;;;7.07;5.17;;;;;;;17.68;100.00;98358.06;4917810;29;20224;-79
2023/09/15 08:27:38;;;;;;;7.30;5.93;;;;;;;17.84;100.00;98351.09;4917764;29;20220;-79
2023/09/15 08:30:08;;;;;;;6.07;5.37;;;;;;;17.81;100.00;98350.56;4917423;29;20211;-78
2023/09/15 08:32:34;;;;;;;7.50;5.37;;;;;;;17.85;100.00;98343.94;4917637;29;20296;-83
2023/09/15 08:35:01;;;;;;;7.70;5.10;;;;;;;17.90;99.53;98347.84;4917639;29;20213;-78
2023/09/15 08:37:27;;;;;;;10.07;5.70;;;;;;;17.91;100.00;98357.53;4917827;29;20231;-78
2023/09/15 08:39:55;;;;;;;6.03;5.10;;;;;;;18.06;100.00;98356.09;4918042;29;20233;-78
2023/09/15 08:42:25;;;;;;;7.20;5.93;;;;;;;18.16;99.39;98348.84;4917823;29;20710;-78
2023/09/15 08:44:52;;;;;;;7.63;6.00;;;;;;;18.39;96.62;98336.81;4917851;29;20216;-78
2023/09/15 08:47:20;;;;;;;8.07;6.07;;;;;;;18.34;95.23;98339.09;4917842;29;20219;-78
2023/09/15 08:49:47;;;;;;;8.37;6.20;;;;;;;18.41;95.00;98340.16;4917349;29;20241;-79
2023/09/15 08:52:15;;;;;;;9.03;6.00;;;;;;;18.51;95.47;98346.31;4916458;29;20754;-80
2023/09/15 08:54:42;;;;;;;12.47;6.17;;;;;;;18.65;94.99;98340.44;4917091;29;20671;-80
2023/09/15 08:57:11;;;;;;;7.10;5.17;;;;;;;18.66;95.53;98339.44;4917108;29;20212;-78
2023/09/15 08:59:38;;;;;;;8.13;5.60;;;;;;;18.85;93.49;98333.97;4916898;29;20244;-78
2023/09/15 09:02:05;;;;;;;7.03;5.70;;;;;;;18.95;93.05;98329.38;4916476;29;20240;-78
2023/09/15 09:04:31;;;;;;;6.47;5.07;;;;;;;19.03;90.35;98318.72;4916726;29;20217;-78
2023/09/15 09:07:02;;;;;;;8.40;6.77;;;;;;;19.22;90.16;98323.09;4916697;29;20212;-78
2023/09/15 09:09:30;;;;;;;7.53;5.67;;;;;;;19.20;89.67;98317.91;4916276;29;20212;-78
2023/09/15 09:11:57;;;;;;;7.90;5.60;;;;;;;19.33;91.12;98323.69;4916260;29;20247;-78
2023/09/15 09:14:25;;;;;;;6.57;5.33;;;;;;;19.47;90.49;98315.13;4916994;29;20227;-79
2023/09/15 09:16:53;;;;;;;6.37;4.73;;;;;;;19.64;89.51;98314.19;4917263;29;20219;-79
2023/09/15 09:19:20;;;;;;;7.10;5.80;;;;;;;19.65;88.29;98307.88;4917822;29;20235;-79
2023/09/15 09:21:46;;;;;;;8.37;5.53;;;;;;;19.70;86.58;98300.16;4917044;29;20232;-79
2023/09/15 09:24:14;;;;;;;7.70;5.87;;;;;;;19.79;85.74;98293.84;4917428;29;20248;-79
2023/09/15 09:26:41;;;;;;;9.30;5.23;;;;;;;19.79;86.74;98303.72;4917510;29;20279;-79
2023/09/15 09:29:07;;;;;;;7.10;5.20;;;;;;;19.88;86.03;98298.25;4918044;29;20208;-79
2023/09/15 09:31:35;;;;;;;8.83;5.87;;;;;;;20.04;84.59;98290.28;4917505;29;20611;-79
2023/09/15 09:34:02;;;;;;;7.47;5.10;;;;;;;20.09;84.62;98289.84;4917549;29;20215;-76
2023/09/15 09:36:28;;;;;;;7.77;5.50;;;;;;;20.24;84.23;98291.75;4917281;29;20224;-79
2023/09/15 09:38:56;;;;;;;6.03;4.93;;;;;;;20.33;83.45;98288.09;4917341;29;20213;-79
2023/09/15 09:41:24;;;;;;;6.60;4.60;;;;;;;20.47;84.33;98283.94;4917347;29;20237;-79
2023/09/15 09:43:51;;;;;;;7.03;4.83;;;;;;;20.54;81.00;98269.69;4916964;29;20216;-79
2023/09/15 09:46:20;;;;;;;6.70;4.70;;;;;;;20.73;80.73;98282.81;4917695;29;20223;-79
2023/09/15 09:48:48;;;;;;;6.50;5.10;;;;;;;20.89;79.23;98271.28;4917520;29;20220;-79
2023/09/15 09:51:16;;;;;;;6.73;5.33;;;;;;;20.91;79.02;98278.16;4917210;29;20233;-79
2023/09/15 09:53:43;;;;;;;7.20;5.50;;;;;;;20.85;79.25;98275.28;4917497;29;20570;-79
2023/09/15 09:56:09;;;;;;;8.53;5.40;;;;;;;20.85;80.37;98278.78;4917522;29;20223;-78
2023/09/15 09:58:38;;;;;;;14.80;5.87;;;;;;;21.03;80.50;98271.44;4917045;29;20569;-79
2023/09/15 10:01:06;;;;;;;7.40;5.40;;;;;;;21.18;81.36;98285.06;4916728;29;20237;-78
2023/09/15 10:03:33;;;;;;;7.80;6.10;;;;;;;21.24;78.12;98262.88;4917395;29;20217;-78
2023/09/15 10:06:03;;;;;;;6.67;5.20;;;;;;;21.31;78.09;98261.19;4917125;29;20583;-79
2023/09/15 10:08:31;;;;;;;5.57;4.87;;;;;;;21.39;78.03;98256.66;4917098;29;20208;-79
2023/09/15 10:10:58;;;;;;;8.23;5.13;;;;;;;21.46;76.99;98257.63;4916904;29;20256;-79
2023/09/15 10:13:26;;;;;;;5.30;4.80;;;;;;;21.57;79.32;98259.16;4917105;29;20215;-80
2023/09/15 10:15:53;;;;;;;8.10;5.13;;;;;;;21.61;75.87;98239.81;4917069;29;20621;-80
2023/09/15 10:18:21;;;;;;;7.10;5.10;;;;;;;21.70;75.03;98238.78;4917342;29;20304;-78
2023/09/15 10:20:53;;;;;;;6.83;4.93;;;;;;;21.71;75.55;98243.16;4916260;29;20240;-79
2023/09/15 10:23:21;;;;;;;15.23;5.30;;;;;;;21.81;76.63;98251.88;4916927;29;20220;-79
2023/09/15 10:25:49;;;;;;;5.77;4.93;;;;;;;21.81;73.76;98235.72;4916877;29;20217;-79
2023/09/15 10:28:17;;;;;;;5.57;5.00;;;;;;;21.78;73.15;98224.47;4917308;29;20259;-79
2023/09/15 10:30:46;;;;;;;6.43;5.10;;;;;;;21.93;74.60;98241.56;4916401;29;20225;-79
2023/09/15 10:33:13;;;;;;;5.73;4.97;;;;;;;21.84;73.82;98231.84;4918060;29;20213;-78
2023/09/15 10:35:43;;;;;;;7.33;5.53;;;;;;;21.81;74.18;98230.34;4920502;29;20213;-78
2023/09/15 10:38:10;;;;;;;6.63;5.03;;;;;;;21.88;75.12;98234.03;4920510;29;20303;-78
2023/09/15 10:40:49;;;;;;;6.87;5.47;;;;;;;22.01;74.49;98228.91;4919051;29;20332;-79
2023/09/15 10:43:17;;;;;;;9.30;5.60;;;;;;;22.27;75.22;98229.47;4920191;29;20215;-78
2023/09/15 10:45:54;;;;;;;7.17;5.93;;;;;;;22.46;71.68;98209.34;4919388;29;20219;-78
2023/09/15 10:48:20;;;;;;;5.90;5.10;;;;;;;22.49;73.38;98225.19;4919832;29;20429;-78
2023/09/15 10:50:47;;;;;;;5.40;4.30;;;;;;;22.40;74.08;98221.66;4919654;29;20239;-78
2023/09/15 10:53:15;;;;;;;6.23;5.27;;;;;;;22.61;74.31;98210.28;4919688;29;20219;-78
2023/09/15 10:55:41;;;;;;;8.97;5.10;;;;;;;22.78;73.03;98204.59;4919429;29;20305;-78
2023/09/15 10:58:10;;;;;;;16.10;6.27;;;;;;;22.94;73.00;98203.63;4919966;29;20212;-79
2023/09/15 11:00:39;;;;;;;7.33;5.60;;;;;;;23.13;72.77;98198.56;4919886;29;20241;-79
2023/09/15 11:03:07;;;;;;;25.90;6.70;;;;;;;23.19;70.86;98191.63;4920275;29;20227;-79
2023/09/15 11:05:35;;;;;;;22.47;5.93;;;;;;;23.29;70.23;98184.94;4919891;29;20217;-79
2023/09/15 11:08:05;;;;;;;59.93;9.70;;;;;;;23.39;72.18;98192.75;4920139;29;20775;-79
2023/09/15 11:10:32;;;;;;;24.57;6.50;;;;;;;23.55;74.79;98198.84;4919797;29;20685;-79
2023/09/15 11:13:00;;;;;;;6.20;4.40;;;;;;;23.68;68.40;98169.34;4920417;29;20212;-81
2023/09/15 11:15:28;;;;;;;6.87;5.53;;;;;;;23.81;66.77;98157.88;4919944;29;20217;-80
2023/09/15 11:17:55;;;;;;;6.20;4.70;;;;;;;23.74;65.71;98154.25;4920026;29;20212;-79
2023/09/15 11:20:22;;;;;;;5.50;5.00;;;;;;;23.63;66.68;98160.97;4920009;29;20237;-79
2023/09/15 11:22:48;;;;;;;4.87;4.37;;;;;;;23.57;66.94;98155.47;4919356;29;20221;-79
2023/09/15 11:25:15;;;;;;;6.90;4.93;;;;;;;23.66;70.16;98174.06;4919610;29;20217;-79
2023/09/15 11:27:43;;;;;;;5.23;4.60;;;;;;;23.78;69.64;98166.34;4919559;29;20272;-79